createdAt,value
2023-01-10T00:01:42.623Z,8.20
2023-01-10T00:04:10.666Z,8.30
2023-01-10T00:06:38.661Z,8.20
2023-01-10T00:09:08.032Z,8.20
2023-01-10T00:11:53.677Z,8.10
2023-01-10T00:14:21.970Z,8.20
2023-01-10T00:16:49.985Z,8.10
2023-01-10T00:19:17.976Z,8.00
2023-01-10T00:21:45.923Z,8.00
2023-01-10T00:24:18.937Z,8.10
2023-01-10T00:26:51.078Z,8.00
2023-01-10T00:29:20.465Z,8.00
2023-01-10T00:31:48.639Z,8.00
2023-01-10T00:34:16.914Z,8.10
2023-01-10T00:36:45.705Z,8.10
2023-01-10T00:39:15.239Z,8.10
2023-01-10T00:42:00.724Z,8.00
2023-01-10T00:44:28.755Z,8.00
2023-01-10T00:46:56.829Z,7.80
2023-01-10T00:49:24.815Z,7.80
2023-01-10T00:51:53.159Z,7.90
2023-01-10T00:54:22.511Z,7.70
2023-01-10T00:56:50.515Z,7.80
2023-01-10T00:59:18.577Z,7.80
2023-01-10T01:01:46.697Z,7.90
2023-01-10T01:04:14.841Z,7.90
2023-01-10T01:06:45.902Z,7.80
2023-01-10T01:09:14.224Z,7.80
2023-01-10T01:11:44.566Z,7.80
2023-01-10T01:14:12.545Z,7.80
2023-01-10T01:16:40.570Z,7.70
2023-01-10T01:19:08.575Z,7.70
2023-01-10T01:21:36.611Z,7.80
2023-01-10T01:24:04.881Z,7.70
2023-01-10T01:26:32.871Z,7.70
2023-01-10T01:29:02.360Z,7.70
2023-01-10T01:31:30.478Z,7.70
2023-01-10T01:33:58.528Z,7.60
2023-01-10T01:36:26.572Z,7.70
2023-01-10T01:38:54.521Z,7.70
2023-01-10T01:41:42.623Z,7.60
2023-01-10T01:44:17.537Z,7.60
2023-01-10T01:46:48.888Z,7.70
2023-01-10T01:49:21.395Z,7.60
2023-01-10T01:51:52.960Z,7.60
2023-01-10T01:54:21.521Z,7.50
2023-01-10T01:56:52.569Z,7.50
2023-01-10T01:59:24.270Z,7.50
2023-01-10T02:01:57.319Z,7.40
2023-01-10T02:04:29.553Z,7.40
2023-01-10T02:06:59.578Z,7.40
2023-01-10T02:09:33.629Z,7.30
2023-01-10T02:12:03.276Z,7.30
2023-01-10T02:14:34.423Z,7.30
2023-01-10T02:17:02.388Z,7.20
2023-01-10T02:19:43.249Z,7.10
2023-01-10T02:22:35.334Z,7.10
2023-01-10T02:25:32.500Z,7.20
2023-01-10T02:28:21.092Z,7.30
2023-01-10T02:31:23.287Z,7.40
2023-01-10T02:33:58.994Z,7.40
2023-01-10T02:36:38.214Z,7.40
2023-01-10T02:39:13.422Z,7.40
2023-01-10T02:41:49.948Z,7.40
2023-01-10T02:44:23.082Z,7.40
2023-01-10T02:46:51.557Z,7.40
2023-01-10T02:49:20.923Z,7.40
2023-01-10T02:51:48.975Z,7.50
2023-01-10T02:54:20.429Z,7.50
2023-01-10T02:57:12.875Z,7.50
2023-01-10T03:00:19.309Z,7.50
2023-01-10T03:03:01.562Z,7.50
2023-01-10T03:05:45.794Z,7.50
2023-01-10T03:08:25.521Z,7.60
2023-01-10T03:10:58.610Z,7.30
2023-01-10T03:13:30.326Z,7.30
2023-01-10T03:15:59.955Z,7.20
2023-01-10T03:18:33.132Z,7.30
2023-01-10T03:21:06.612Z,7.40
2023-01-10T03:23:36.085Z,7.50
2023-01-10T03:26:06.128Z,7.40
2023-01-10T03:28:40.031Z,7.30
2023-01-10T03:31:12.234Z,7.30
2023-01-10T03:33:41.095Z,7.40
2023-01-10T03:36:20.886Z,7.30
2023-01-10T03:38:55.164Z,7.50
2023-01-10T03:41:34.662Z,7.40
2023-01-10T03:44:27.430Z,7.40
2023-01-10T03:47:00.297Z,7.40
2023-01-10T03:49:32.579Z,7.30
2023-01-10T03:52:03.207Z,7.40
2023-01-10T03:54:31.522Z,7.50
2023-01-10T03:57:01.289Z,7.60
2023-01-10T03:59:31.665Z,7.60
2023-01-10T04:01:59.880Z,7.40
2023-01-10T04:04:28.133Z,7.40
2023-01-10T04:06:56.110Z,7.20
2023-01-10T04:09:25.693Z,7.20
2023-01-10T04:11:53.674Z,7.20
2023-01-10T04:14:21.665Z,7.20
2023-01-10T04:16:49.626Z,7.20
2023-01-10T04:19:17.633Z,7.30
2023-01-10T04:21:45.750Z,7.40
2023-01-10T04:24:13.858Z,7.40
2023-01-10T04:26:43.285Z,7.40
2023-01-10T04:29:11.321Z,7.30
2023-01-10T04:31:40.026Z,7.30
2023-01-10T04:34:08.272Z,7.30
2023-01-10T04:36:36.498Z,7.30
2023-01-10T04:39:05.238Z,7.30
2023-01-10T04:41:33.251Z,7.30
2023-01-10T04:44:02.784Z,7.30
2023-01-10T04:46:31.041Z,7.20
2023-01-10T04:48:59.380Z,7.30
2023-01-10T04:51:28.254Z,7.30
2023-01-10T04:53:56.862Z,7.30
2023-01-10T04:56:26.566Z,7.40
2023-01-10T04:58:54.979Z,7.40
2023-01-10T05:01:26.336Z,7.40
2023-01-10T05:03:56.280Z,7.40
2023-01-10T05:06:25.467Z,7.40
2023-01-10T05:08:53.478Z,7.40
2023-01-10T05:11:21.491Z,7.30
2023-01-10T05:13:49.936Z,7.30
2023-01-10T05:16:18.488Z,7.30
2023-01-10T05:18:48.383Z,7.20
2023-01-10T05:21:16.421Z,7.30
2023-01-10T05:23:44.409Z,7.30
2023-01-10T05:26:14.148Z,7.20
2023-01-10T05:28:43.233Z,7.20
2023-01-10T05:31:14.315Z,7.20
2023-01-10T05:33:47.328Z,7.20
2023-01-10T05:36:15.637Z,7.20
2023-01-10T05:38:43.714Z,7.20
2023-01-10T05:41:11.848Z,7.20
2023-01-10T05:43:39.820Z,7.30
2023-01-10T05:46:07.968Z,7.30
2023-01-10T05:48:36.065Z,7.20
2023-01-10T05:51:05.777Z,7.20
2023-01-10T05:53:33.774Z,7.20
2023-01-10T05:56:03.314Z,7.20
2023-01-10T05:58:31.557Z,7.20
2023-01-10T06:00:59.950Z,7.10
2023-01-10T06:03:28.318Z,7.10
2023-01-10T06:05:56.779Z,7.10
2023-01-10T06:08:26.396Z,7.00
2023-01-10T06:10:54.426Z,7.00
2023-01-10T06:13:22.454Z,7.00
2023-01-10T06:15:51.135Z,7.00
2023-01-10T06:18:19.115Z,6.90
2023-01-10T06:20:47.331Z,6.90
2023-01-10T06:23:15.402Z,6.90
2023-01-10T06:25:44.759Z,6.80
2023-01-10T06:28:14.617Z,6.80
2023-01-10T06:30:44.170Z,6.90
2023-01-10T06:33:13.223Z,6.80
2023-01-10T06:35:41.241Z,6.90
2023-01-10T06:38:09.260Z,6.90
2023-01-10T06:40:37.241Z,7.00
2023-01-10T06:43:06.590Z,7.00
2023-01-10T06:45:34.750Z,7.10
2023-01-10T06:48:02.735Z,7.00
2023-01-10T06:50:31.832Z,6.90
2023-01-10T06:53:01.258Z,6.90
2023-01-10T06:55:30.183Z,7.00
2023-01-10T06:57:58.755Z,7.00
2023-01-10T07:00:29.838Z,6.90
2023-01-10T07:03:00.169Z,6.90
2023-01-10T07:05:29.124Z,6.90
2023-01-10T07:07:58.806Z,7.00
2023-01-10T07:10:26.932Z,7.00
2023-01-10T07:12:56.096Z,7.00
2023-01-10T07:15:24.270Z,6.90
2023-01-10T07:17:53.695Z,6.90
2023-01-10T07:20:21.735Z,6.90
2023-01-10T07:22:54.662Z,6.80
2023-01-10T07:25:22.819Z,6.80
2023-01-10T07:27:50.818Z,6.80
2023-01-10T07:30:19.254Z,6.80
2023-01-10T07:32:47.248Z,6.90
2023-01-10T07:35:16.803Z,6.90
2023-01-10T07:37:44.927Z,6.80
2023-01-10T07:40:13.719Z,6.90
2023-01-10T07:42:41.757Z,6.90
2023-01-10T07:45:10.566Z,6.80
2023-01-10T07:47:39.228Z,6.80
2023-01-10T07:50:08.333Z,6.80
2023-01-10T07:52:38.449Z,6.80
2023-01-10T07:55:07.421Z,6.80
2023-01-10T07:57:35.403Z,6.90
2023-01-10T08:00:03.890Z,6.90
2023-01-10T08:02:31.968Z,7.00
2023-01-10T08:05:00.179Z,6.90
2023-01-10T08:07:30.276Z,7.00
2023-01-10T08:09:59.916Z,6.90
2023-01-10T08:12:27.996Z,7.00
2023-01-10T08:14:56.118Z,7.00
2023-01-10T08:17:24.156Z,7.10
2023-01-10T08:19:52.320Z,7.10
2023-01-10T08:22:20.325Z,7.10
2023-01-10T08:24:48.447Z,7.00
2023-01-10T08:27:17.801Z,7.10
2023-01-10T08:29:45.819Z,7.10
2023-01-10T08:32:14.015Z,7.10
2023-01-10T08:34:42.308Z,7.00
2023-01-10T08:37:13.809Z,7.00
2023-01-10T08:39:41.842Z,7.10
2023-01-10T08:42:09.865Z,7.00
2023-01-10T08:44:39.402Z,7.10
2023-01-10T08:47:07.343Z,7.20
2023-01-10T08:49:35.326Z,7.10
2023-01-10T08:52:03.667Z,7.20
2023-01-10T08:54:32.159Z,7.30
2023-01-10T08:57:00.240Z,7.40
2023-01-10T08:59:28.219Z,7.40
2023-01-10T09:01:58.521Z,7.40
2023-01-10T09:04:28.628Z,7.40
2023-01-10T09:06:59.943Z,7.50
2023-01-10T09:09:28.013Z,7.50
2023-01-10T09:11:57.536Z,7.40
2023-01-10T09:14:25.600Z,7.40
2023-01-10T09:16:53.646Z,7.40
2023-01-10T09:19:23.079Z,7.50
2023-01-10T09:21:51.076Z,7.50
2023-01-10T09:24:19.571Z,7.40
2023-01-10T09:26:47.577Z,7.40
2023-01-10T09:29:15.586Z,7.40
2023-01-10T09:31:43.883Z,7.40
2023-01-10T09:34:12.022Z,7.40
2023-01-10T09:36:41.417Z,7.40
2023-01-10T09:39:09.445Z,7.40
2023-01-10T09:42:00.360Z,7.40
2023-01-10T09:44:42.152Z,7.20
2023-01-10T09:47:22.898Z,7.20
2023-01-10T09:50:01.261Z,7.30
2023-01-10T09:52:34.303Z,7.30
2023-01-10T09:55:15.480Z,7.20
2023-01-10T09:57:43.712Z,7.20
2023-01-10T10:00:19.184Z,7.30
2023-01-10T10:02:51.029Z,7.40
2023-01-10T10:05:21.995Z,7.40
2023-01-10T10:07:56.858Z,7.50
2023-01-10T10:10:27.239Z,7.50
2023-01-10T10:13:03.507Z,7.40
2023-01-10T10:15:39.340Z,7.50
2023-01-10T10:18:19.879Z,7.40
2023-01-10T10:20:59.783Z,7.40
2023-01-10T10:23:53.802Z,7.40
2023-01-10T10:26:30.185Z,7.40
2023-01-10T10:29:25.391Z,7.50
2023-01-10T10:32:09.441Z,7.50
2023-01-10T10:34:42.931Z,7.50
2023-01-10T10:37:17.899Z,7.50
2023-01-10T10:39:53.241Z,7.60
2023-01-10T10:42:21.551Z,7.60
2023-01-10T10:44:57.140Z,7.50
2023-01-10T10:47:29.392Z,7.40
2023-01-10T10:50:06.751Z,7.40
2023-01-10T10:52:37.146Z,7.40
2023-01-10T10:55:08.902Z,7.40
2023-01-10T10:57:43.445Z,7.30
2023-01-10T11:00:22.711Z,7.40
2023-01-10T11:02:56.008Z,7.40
2023-01-10T11:05:32.644Z,7.80
2023-01-10T11:08:05.708Z,7.40
2023-01-10T11:10:36.104Z,7.40
2023-01-10T11:13:07.207Z,7.40
2023-01-10T11:15:41.990Z,7.50
2023-01-10T11:18:14.207Z,7.50
2023-01-10T11:20:51.030Z,7.50
2023-01-10T11:23:37.059Z,7.50
2023-01-10T11:26:08.468Z,7.50
2023-01-10T11:28:39.338Z,7.60
2023-01-10T11:31:08.409Z,7.60
2023-01-10T11:33:37.110Z,7.60
2023-01-10T11:36:07.402Z,7.60
2023-01-10T11:38:36.046Z,7.60
2023-01-10T11:41:07.577Z,7.60
2023-01-10T11:43:37.234Z,7.60
2023-01-10T11:46:13.402Z,7.60
2023-01-10T11:49:04.955Z,7.60
2023-01-10T11:51:37.648Z,7.50
2023-01-10T11:54:07.809Z,7.50
2023-01-10T11:56:39.925Z,7.60
2023-01-10T11:59:14.742Z,7.60
2023-01-10T12:01:46.239Z,7.60
2023-01-10T12:04:18.583Z,7.60
2023-01-10T12:06:49.218Z,7.60
2023-01-10T12:09:42.443Z,7.50
2023-01-10T12:12:23.932Z,7.50
2023-01-10T12:14:53.604Z,7.50
2023-01-10T12:17:27.486Z,7.10
2023-01-10T12:20:00.290Z,7.60
2023-01-10T12:22:32.508Z,7.40
2023-01-10T12:25:04.863Z,7.40
2023-01-10T12:27:34.388Z,7.50
2023-01-10T12:30:08.117Z,7.60
2023-01-10T12:32:42.882Z,7.50
2023-01-10T12:35:16.713Z,7.50
2023-01-10T12:37:51.449Z,7.50
2023-01-10T12:40:27.007Z,7.60
2023-01-10T12:43:20.536Z,7.50
2023-01-10T12:45:52.844Z,7.50
2023-01-10T12:48:27.097Z,7.50
2023-01-10T12:50:58.840Z,7.40
2023-01-10T12:53:40.046Z,7.40
2023-01-10T12:56:13.252Z,7.40
2023-01-10T12:58:46.087Z,7.30
2023-01-10T13:01:17.680Z,7.40
2023-01-10T13:03:50.010Z,7.40
2023-01-10T13:06:23.675Z,7.50
2023-01-10T13:08:52.929Z,7.40
2023-01-10T13:11:25.250Z,7.20
2023-01-10T13:14:00.680Z,7.10
2023-01-10T13:16:34.896Z,7.20
2023-01-10T13:19:06.494Z,7.30
2023-01-10T13:21:35.517Z,7.30
2023-01-10T13:24:05.837Z,7.30
2023-01-10T13:26:53.539Z,7.40
2023-01-10T13:29:24.556Z,7.30
2023-01-10T13:31:57.574Z,7.30
2023-01-10T13:34:33.311Z,7.30
2023-01-10T13:37:05.161Z,7.30
2023-01-10T13:39:35.892Z,7.30
2023-01-10T13:42:50.088Z,7.30
2023-01-10T13:45:27.951Z,7.20
2023-01-10T13:48:04.627Z,7.20
2023-01-10T13:50:52.917Z,7.20
2023-01-10T13:53:54.940Z,7.30
2023-01-10T13:56:38.078Z,7.30
2023-01-10T13:59:30.388Z,7.40
2023-01-10T14:02:20.162Z,7.40
2023-01-10T14:04:51.571Z,7.40
2023-01-10T14:07:24.988Z,7.30
2023-01-10T14:09:54.154Z,7.30
2023-01-10T14:12:27.818Z,7.30
2023-01-10T14:15:02.993Z,7.20
2023-01-10T14:17:34.717Z,7.20
2023-01-10T14:20:14.705Z,7.20
2023-01-10T14:22:57.940Z,7.10
2023-01-10T14:25:28.641Z,7.10
2023-01-10T14:27:59.017Z,7.10
2023-01-10T14:30:31.845Z,7.10
2023-01-10T14:33:08.023Z,7.10
2023-01-10T14:35:39.911Z,7.10
2023-01-10T14:38:14.588Z,7.20
2023-01-10T14:40:45.272Z,7.20
2023-01-10T14:43:16.959Z,7.20
2023-01-10T14:45:52.786Z,7.30
2023-01-10T14:48:28.305Z,7.30
2023-01-10T14:51:09.435Z,7.30
2023-01-10T14:53:37.544Z,7.20
2023-01-10T14:56:17.972Z,7.20
2023-01-10T14:58:46.023Z,7.20
2023-01-10T15:01:18.597Z,7.20
2023-01-10T15:03:48.379Z,7.10
2023-01-10T15:06:16.389Z,7.10
2023-01-10T15:08:44.483Z,7.20
2023-01-10T15:11:14.006Z,7.10
2023-01-10T15:13:48.830Z,7.20
2023-01-10T15:18:50.004Z,6.90
2023-01-10T15:21:22.101Z,6.90
2023-01-10T15:23:51.031Z,7.00
2023-01-10T15:26:22.564Z,7.00
2023-01-10T15:29:08.204Z,7.00
2023-01-10T15:31:38.902Z,6.90
2023-01-10T15:34:17.098Z,6.90
2023-01-10T15:36:49.551Z,6.90
2023-01-10T15:39:23.033Z,6.90
2023-01-10T15:41:57.543Z,6.90
2023-01-10T15:44:38.329Z,6.90
2023-01-10T15:47:06.943Z,6.80
2023-01-10T15:49:36.291Z,6.80
2023-01-10T15:52:04.242Z,6.90
2023-01-10T15:54:33.732Z,6.90
2023-01-10T15:57:25.659Z,7.00
2023-01-10T15:59:54.731Z,6.90
2023-01-10T16:02:25.615Z,6.90
2023-01-10T16:04:57.002Z,6.80
2023-01-10T16:07:28.012Z,6.80
2023-01-10T16:09:59.441Z,6.80
2023-01-10T16:12:52.965Z,6.80
2023-01-10T16:15:23.358Z,6.80
2023-01-10T16:17:52.516Z,6.80
2023-01-10T16:20:32.231Z,6.80
2023-01-10T16:23:01.065Z,6.80
2023-01-10T16:25:32.996Z,6.80
2023-01-10T16:28:01.381Z,6.80
2023-01-10T16:30:31.039Z,6.80
2023-01-10T16:33:00.744Z,6.90
2023-01-10T16:35:30.407Z,6.90
2023-01-10T16:37:59.275Z,6.80
2023-01-10T16:40:29.122Z,6.70
2023-01-10T16:43:14.571Z,6.70
2023-01-10T16:45:42.829Z,6.70
2023-01-10T16:48:11.247Z,6.70
2023-01-10T16:50:40.746Z,6.60
2023-01-10T16:53:11.246Z,6.60
2023-01-10T16:55:42.296Z,6.60
2023-01-10T16:58:11.744Z,6.60
2023-01-10T17:00:40.458Z,6.60
2023-01-10T17:03:13.068Z,6.50
2023-01-10T17:05:42.988Z,6.60
2023-01-10T17:08:15.211Z,6.60
2023-01-10T17:10:43.426Z,6.70
2023-01-10T17:13:13.527Z,6.70
2023-01-10T17:15:41.583Z,6.70
2023-01-10T17:18:11.443Z,6.60
2023-01-10T17:20:39.453Z,6.60
2023-01-10T17:23:10.220Z,6.60
2023-01-10T17:25:38.204Z,6.70
2023-01-10T17:28:06.527Z,6.80
2023-01-10T17:30:34.526Z,6.90
2023-01-10T17:33:02.568Z,7.00
2023-01-10T17:35:32.501Z,7.10
2023-01-10T17:38:00.488Z,7.10
2023-01-10T17:40:29.808Z,7.00
2023-01-10T17:42:57.797Z,7.00
2023-01-10T17:45:25.947Z,7.00
2023-01-10T17:47:53.979Z,7.10
2023-01-10T17:50:21.932Z,7.10
2023-01-10T17:52:50.423Z,7.20
2023-01-10T17:55:18.643Z,7.20
2023-01-10T17:57:47.963Z,7.10
2023-01-10T18:00:17.225Z,7.10
2023-01-10T18:02:45.623Z,7.00
2023-01-10T18:05:13.705Z,7.10
2023-01-10T18:07:41.827Z,7.00
2023-01-10T18:10:10.795Z,7.10
2023-01-10T18:12:39.061Z,7.00
2023-01-10T18:15:09.779Z,7.00
2023-01-10T18:17:37.756Z,7.00
2023-01-10T18:20:06.722Z,6.90
2023-01-10T18:22:52.015Z,6.90
2023-01-10T18:25:20.278Z,7.00
2023-01-10T18:27:50.466Z,6.90
2023-01-10T18:30:22.290Z,6.90
2023-01-10T18:32:51.092Z,6.90
2023-01-10T18:35:19.232Z,7.00
2023-01-10T18:37:47.429Z,7.00
2023-01-10T18:40:15.812Z,7.00
2023-01-10T18:42:44.335Z,7.10
2023-01-10T18:45:12.346Z,7.00
2023-01-10T18:47:41.702Z,7.10
2023-01-10T18:50:10.729Z,7.20
2023-01-10T18:52:38.755Z,7.10
2023-01-10T18:55:08.112Z,7.10
2023-01-10T18:57:36.129Z,7.10
2023-01-10T19:00:04.769Z,7.10
2023-01-10T19:02:32.868Z,7.10
2023-01-10T19:05:03.825Z,7.20
2023-01-10T19:07:31.804Z,7.10
2023-01-10T19:09:59.782Z,7.10
2023-01-10T19:12:28.477Z,7.10
2023-01-10T19:14:56.456Z,7.50
2023-01-10T19:17:24.971Z,7.10
2023-01-10T19:19:54.875Z,7.00
2023-01-10T19:22:24.239Z,7.00
2023-01-10T19:24:52.246Z,7.00
2023-01-10T19:27:20.301Z,7.00
2023-01-10T19:29:50.004Z,7.00
2023-01-10T19:32:18.191Z,7.00
2023-01-10T19:34:46.506Z,7.10
2023-01-10T19:37:14.601Z,7.10
2023-01-10T19:39:43.950Z,7.10
2023-01-10T19:42:11.959Z,7.20
2023-01-10T19:44:39.934Z,7.10
2023-01-10T19:47:07.916Z,7.10
2023-01-10T19:49:37.086Z,7.10
2023-01-10T19:52:05.976Z,7.10
2023-01-10T19:54:33.987Z,7.10
2023-01-10T19:57:03.439Z,7.10
2023-01-10T19:59:32.668Z,7.20
2023-01-10T20:02:00.960Z,7.20
2023-01-10T20:04:29.025Z,7.10
2023-01-10T20:06:57.019Z,7.10
2023-01-10T20:09:25.200Z,7.00
2023-01-10T20:11:53.336Z,7.00
2023-01-10T20:14:24.942Z,6.90
2023-01-10T20:16:53.342Z,6.80
2023-01-10T20:19:22.109Z,6.90
2023-01-10T20:21:50.151Z,7.00
2023-01-10T20:24:19.518Z,7.00
2023-01-10T20:26:48.533Z,7.10
2023-01-10T20:29:17.698Z,7.00
2023-01-10T20:31:49.683Z,7.00
2023-01-10T20:34:17.662Z,7.10
2023-01-10T20:36:47.399Z,7.10
2023-01-10T20:39:16.774Z,7.00
2023-01-10T20:41:44.789Z,6.90
2023-01-10T20:44:12.774Z,6.90
2023-01-10T20:46:40.806Z,6.80
2023-01-10T20:49:10.494Z,6.80
2023-01-10T20:51:38.934Z,6.80
2023-01-10T20:54:08.245Z,6.80
2023-01-10T20:56:36.330Z,6.80
2023-01-10T20:59:05.500Z,6.80
2023-01-10T21:01:35.431Z,6.90
2023-01-10T21:04:04.970Z,7.00
2023-01-10T21:06:35.666Z,7.00
2023-01-10T21:09:04.476Z,7.10
2023-01-10T21:11:36.740Z,7.00
2023-01-10T21:14:13.131Z,7.00
2023-01-10T21:16:41.115Z,7.10
2023-01-10T21:19:10.471Z,7.10
2023-01-10T21:21:40.914Z,7.00
2023-01-10T21:24:10.192Z,7.10
2023-01-10T21:26:38.486Z,7.10
2023-01-10T21:29:06.474Z,7.10
2023-01-10T21:31:34.511Z,7.10
2023-01-10T21:34:02.522Z,7.10
2023-01-10T21:36:30.536Z,7.20
2023-01-10T21:38:59.890Z,7.20
2023-01-10T21:41:45.414Z,7.20
2023-01-10T21:44:13.437Z,7.20
2023-01-10T21:46:44.589Z,7.20
2023-01-10T21:49:12.620Z,7.10
2023-01-10T21:51:40.624Z,7.20
2023-01-10T21:54:09.965Z,7.00
2023-01-10T21:56:37.964Z,7.10
2023-01-10T21:59:06.022Z,7.20
2023-01-10T22:01:34.024Z,7.30
2023-01-10T22:04:02.089Z,7.30
2023-01-10T22:06:30.296Z,7.20
2023-01-10T22:08:58.303Z,7.30
2023-01-10T22:11:27.693Z,7.20
2023-01-10T22:13:57.084Z,7.10
2023-01-10T22:16:25.334Z,7.10
2023-01-10T22:18:53.391Z,7.00
2023-01-10T22:21:21.531Z,7.00
2023-01-10T22:23:49.554Z,7.00
2023-01-10T22:26:18.154Z,6.90
2023-01-10T22:28:47.476Z,6.90
2023-01-10T22:31:15.565Z,6.90
2023-01-10T22:33:43.857Z,7.00
2023-01-10T22:36:16.505Z,7.10
2023-01-10T22:38:45.303Z,7.00
2023-01-10T22:41:15.452Z,7.20
2023-01-10T22:43:44.401Z,7.10
2023-01-10T22:46:15.680Z,7.20
2023-01-10T22:48:44.708Z,7.10
2023-01-10T22:51:12.856Z,7.10
2023-01-10T22:53:40.896Z,7.00
2023-01-10T22:56:11.225Z,7.00
2023-01-10T22:58:39.345Z,6.90
2023-01-10T23:01:08.433Z,7.00
2023-01-10T23:03:37.840Z,7.00
2023-01-10T23:06:06.042Z,7.10
2023-01-10T23:08:34.268Z,7.00
2023-01-10T23:11:02.455Z,7.00
2023-01-10T23:13:31.470Z,6.90
2023-01-10T23:16:01.607Z,6.90
2023-01-10T23:18:30.289Z,6.80
2023-01-10T23:20:59.684Z,6.80
2023-01-10T23:23:28.686Z,6.70
2023-01-10T23:26:04.499Z,6.70
2023-01-10T23:28:33.705Z,6.80
2023-01-10T23:31:01.923Z,6.90
2023-01-10T23:33:30.331Z,7.00
2023-01-10T23:36:00.007Z,7.00
2023-01-10T23:38:28.592Z,7.00
2023-01-10T23:40:56.837Z,7.10
2023-01-10T23:43:25.446Z,7.20
2023-01-10T23:45:53.514Z,7.20
2023-01-10T23:48:21.998Z,7.20
2023-01-10T23:50:52.215Z,7.10
2023-01-10T23:53:21.697Z,7.10
2023-01-10T23:55:49.687Z,7.20
2023-01-10T23:58:18.155Z,7.10
